createdAt,value
2022-08-05T00:01:28.444Z,71.90
2022-08-05T00:03:56.998Z,71.90
2022-08-05T00:06:32.302Z,71.90
2022-08-05T00:09:00.695Z,71.90
2022-08-05T00:11:30.609Z,71.80
2022-08-05T00:14:02.210Z,71.70
2022-08-05T00:16:36.484Z,71.60
2022-08-05T00:19:15.930Z,71.50
2022-08-05T00:21:42.813Z,71.60
2022-08-05T00:24:10.898Z,71.60
2022-08-05T00:26:38.568Z,71.80
2022-08-05T00:29:05.367Z,71.70
2022-08-05T00:31:54.474Z,71.80
2022-08-05T00:34:55.423Z,71.90
2022-08-05T00:37:12.709Z,71.80
2022-08-05T00:39:44.455Z,71.80
2022-08-05T00:42:35.501Z,71.70
2022-08-05T00:45:04.725Z,71.60
2022-08-05T00:47:57.299Z,71.50
2022-08-05T00:50:25.087Z,71.50
2022-08-05T00:52:53.369Z,71.60
2022-08-05T00:55:22.258Z,71.70
2022-08-05T00:57:55.483Z,71.80
2022-08-05T01:00:26.392Z,71.80
2022-08-05T01:02:53.278Z,71.90
2022-08-05T01:05:20.219Z,71.80
2022-08-05T01:08:39.226Z,71.80
2022-08-05T01:11:11.527Z,71.80
2022-08-05T01:13:58.511Z,71.70
2022-08-05T01:16:33.884Z,71.50
2022-08-05T01:19:06.579Z,71.40
2022-08-05T01:21:58.263Z,71.60
2022-08-05T01:24:47.916Z,71.70
2022-08-05T01:27:55.184Z,71.80
2022-08-05T01:30:34.121Z,71.80
2022-08-05T01:33:02.978Z,71.90
2022-08-05T01:35:51.638Z,71.80
2022-08-05T01:38:27.382Z,71.90
2022-08-05T01:41:00.117Z,71.70
2022-08-05T01:43:28.777Z,71.60
2022-08-05T01:45:56.593Z,71.50
2022-08-05T01:48:25.393Z,71.50
2022-08-05T01:50:53.670Z,71.50
2022-08-05T01:53:55.128Z,71.60
2022-08-05T01:56:08.901Z,71.80
2022-08-05T01:58:45.136Z,71.80
2022-08-05T02:01:13.461Z,71.90
2022-08-05T02:03:43.885Z,71.80
2022-08-05T02:06:33.807Z,71.80
2022-08-05T02:08:58.409Z,71.80
2022-08-05T02:11:33.234Z,71.60
2022-08-05T02:14:05.917Z,72.30
2022-08-05T02:16:53.249Z,71.30
2022-08-05T02:19:35.048Z,71.40
2022-08-05T02:22:03.080Z,71.50
2022-08-05T02:24:34.377Z,71.60
2022-08-05T02:27:09.118Z,72.50
2022-08-05T02:29:58.574Z,71.80
2022-08-05T02:32:30.806Z,71.70
2022-08-05T02:35:13.344Z,71.60
2022-08-05T02:37:41.796Z,71.80
2022-08-05T02:40:09.577Z,71.50
2022-08-05T02:42:37.117Z,71.50
2022-08-05T02:45:04.568Z,71.40
2022-08-05T02:48:06.271Z,71.20
2022-08-05T02:50:18.938Z,71.40
2022-08-05T02:52:45.724Z,71.50
2022-08-05T02:55:12.480Z,72.40
2022-08-05T02:58:10.570Z,71.70
2022-08-05T03:00:27.175Z,71.70
2022-08-05T03:02:54.006Z,71.70
2022-08-05T03:05:21.826Z,71.70
2022-08-05T03:08:08.833Z,71.80
2022-08-05T03:10:36.329Z,71.40
2022-08-05T03:15:28.801Z,71.70
2022-08-05T03:17:57.529Z,71.30
2022-08-05T03:20:25.081Z,71.40
2022-08-05T03:22:53.176Z,71.50
2022-08-05T03:25:33.268Z,71.50
2022-08-05T03:28:13.918Z,72.50
2022-08-05T03:30:42.251Z,71.50
2022-08-05T03:33:09.235Z,71.50
2022-08-05T03:35:40.865Z,71.50
2022-08-05T03:38:12.012Z,71.50
2022-08-05T03:40:48.423Z,71.30
2022-08-05T03:44:08.433Z,71.30
2022-08-05T03:46:03.492Z,71.20
2022-08-05T03:48:30.587Z,71.30
2022-08-05T03:52:37.774Z,71.50
2022-08-05T03:55:33.980Z,71.50
2022-08-05T03:57:02.375Z,72.40
2022-08-05T03:59:56.338Z,71.70
2022-08-05T04:02:38.189Z,71.70
2022-08-05T04:05:12.561Z,71.80
2022-08-05T04:07:57.287Z,71.60
2022-08-05T04:10:27.942Z,71.40
2022-08-05T04:12:59.026Z,71.30
2022-08-05T04:15:27.760Z,71.20
2022-08-05T04:18:07.368Z,71.40
2022-08-05T04:20:36.779Z,71.50
2022-08-05T04:23:03.687Z,71.60
2022-08-05T04:25:57.714Z,71.50
2022-08-05T04:28:17.747Z,71.80
2022-08-05T04:30:45.384Z,70.70
2022-08-05T04:33:12.942Z,65.30
2022-08-05T04:36:16.212Z,66.80
2022-08-05T04:38:39.604Z,67.40
2022-08-05T04:41:09.324Z,69.50
2022-08-05T04:43:37.643Z,70.90
2022-08-05T04:46:07.413Z,71.90
2022-08-05T04:48:34.366Z,72.40
2022-08-05T04:51:11.027Z,72.00
2022-08-05T04:53:39.411Z,71.40
2022-08-05T04:56:32.642Z,70.70
2022-08-05T04:59:00.890Z,70.90
2022-08-05T05:02:07.155Z,70.80
2022-08-05T05:04:38.232Z,68.10
2022-08-05T05:07:09.368Z,67.70
2022-08-05T05:09:37.237Z,67.90
2022-08-05T05:12:06.424Z,68.70
2022-08-05T05:14:36.205Z,67.80
2022-08-05T05:17:03.694Z,68.80
2022-08-05T05:19:44.163Z,69.60
2022-08-05T05:22:23.713Z,70.10
2022-08-05T05:24:56.702Z,70.20
2022-08-05T05:27:41.506Z,70.40
2022-08-05T05:30:29.031Z,70.90
2022-08-05T05:33:00.658Z,70.60
2022-08-05T05:35:34.456Z,70.90
2022-08-05T05:38:08.972Z,71.30
2022-08-05T05:40:43.840Z,72.30
2022-08-05T05:43:27.679Z,71.30
2022-08-05T05:46:05.200Z,71.00
2022-08-05T05:48:34.664Z,71.60
2022-08-05T05:51:14.940Z,71.80
2022-08-05T05:53:54.111Z,72.20
2022-08-05T05:56:32.826Z,72.30
2022-08-05T05:59:06.716Z,72.10
2022-08-05T06:01:37.463Z,73.70
2022-08-05T06:04:11.523Z,77.30
2022-08-05T06:06:43.367Z,77.40
2022-08-05T06:09:17.485Z,78.20
2022-08-05T06:12:01.320Z,79.00
2022-08-05T06:14:33.425Z,79.60
2022-08-05T06:17:02.204Z,78.80
2022-08-05T06:19:56.576Z,79.10
2022-08-05T06:22:33.573Z,80.30
2022-08-05T06:25:00.936Z,80.10
2022-08-05T06:28:10.997Z,80.50
2022-08-05T06:30:17.717Z,80.30
2022-08-05T06:32:47.792Z,79.80
2022-08-05T06:35:21.893Z,80.30
2022-08-05T06:38:09.806Z,79.80
2022-08-05T06:40:42.034Z,79.70
2022-08-05T06:43:57.835Z,78.00
2022-08-05T06:46:06.808Z,77.80
2022-08-05T06:48:50.518Z,76.10
2022-08-05T06:51:29.352Z,76.30
2022-08-05T06:53:58.825Z,75.80
2022-08-05T06:56:27.113Z,75.10
2022-08-05T06:58:55.094Z,75.00
2022-08-05T07:01:22.669Z,75.00
2022-08-05T07:03:49.723Z,75.30
2022-08-05T07:06:17.460Z,74.70
2022-08-05T07:08:54.743Z,75.90
2022-08-05T07:11:22.427Z,75.90
2022-08-05T07:14:20.720Z,76.20
2022-08-05T07:17:59.876Z,76.40
2022-08-05T07:20:31.255Z,75.90
2022-08-05T07:22:34.657Z,75.70
2022-08-05T07:25:23.621Z,76.60
2022-08-05T07:27:57.792Z,75.60
2022-08-05T07:30:31.936Z,75.30
2022-08-05T07:33:01.427Z,75.40
2022-08-05T07:36:01.625Z,80.30
2022-08-05T07:38:33.847Z,77.30
2022-08-05T07:42:08.442Z,76.00
2022-08-05T07:43:52.221Z,75.60
2022-08-05T07:46:24.594Z,74.70
2022-08-05T07:49:02.346Z,74.90
2022-08-05T07:51:40.777Z,74.70
2022-08-05T07:54:15.590Z,74.30
2022-08-05T07:57:01.856Z,74.10
2022-08-05T07:59:38.825Z,73.90
2022-08-05T08:02:10.583Z,73.40
2022-08-05T08:04:43.107Z,73.10
2022-08-05T08:07:12.319Z,74.00
2022-08-05T08:09:39.160Z,75.30
2022-08-05T08:12:14.666Z,75.40
2022-08-05T08:14:47.130Z,74.10
2022-08-05T08:17:16.071Z,73.60
2022-08-05T08:20:21.080Z,73.40
2022-08-05T08:22:30.504Z,73.10
2022-08-05T08:25:02.706Z,73.00
2022-08-05T08:27:45.034Z,72.90
2022-08-05T08:30:29.810Z,72.90
2022-08-05T08:33:02.704Z,72.80
2022-08-05T08:35:35.163Z,73.30
2022-08-05T08:38:08.686Z,71.90
2022-08-05T08:40:45.702Z,71.90
2022-08-05T08:45:16.839Z,72.20
2022-08-05T08:46:06.230Z,72.40
2022-08-05T08:48:42.707Z,72.60
2022-08-05T08:52:02.001Z,72.40
2022-08-05T08:54:13.792Z,72.40
2022-08-05T08:56:47.638Z,72.40
2022-08-05T08:59:19.646Z,72.20
2022-08-05T09:01:57.563Z,72.40
2022-08-05T09:04:30.666Z,72.30
2022-08-05T09:06:58.462Z,72.20
2022-08-05T09:09:34.882Z,72.10
2022-08-05T09:12:20.235Z,71.70
2022-08-05T09:14:58.065Z,71.90
2022-08-05T09:17:41.243Z,71.70
2022-08-05T09:20:11.060Z,71.60
2022-08-05T09:23:07.882Z,71.70
2022-08-05T09:26:03.326Z,71.50
2022-08-05T09:28:32.564Z,71.40
2022-08-05T09:31:44.060Z,71.30
2022-08-05T09:34:02.925Z,71.30
2022-08-05T09:36:55.158Z,71.20
2022-08-05T09:39:39.380Z,71.30
2022-08-05T09:42:17.208Z,71.20
2022-08-05T09:44:50.478Z,71.20
2022-08-05T09:47:22.471Z,71.00
2022-08-05T09:50:02.381Z,71.30
2022-08-05T09:52:34.407Z,71.10
2022-08-05T09:55:56.420Z,71.10
2022-08-05T09:57:54.554Z,70.60
2022-08-05T10:00:26.746Z,71.00
2022-08-05T10:02:58.284Z,70.80
2022-08-05T10:05:27.837Z,71.10
2022-08-05T10:08:36.632Z,70.70
2022-08-05T10:10:45.362Z,71.20
2022-08-05T10:13:31.603Z,71.10
2022-08-05T10:16:00.476Z,70.90
2022-08-05T10:18:31.964Z,70.30
2022-08-05T10:21:11.881Z,70.20
2022-08-05T10:23:58.858Z,70.00
2022-08-05T10:26:31.644Z,70.50
2022-08-05T10:28:59.839Z,70.30
2022-08-05T10:32:52.974Z,70.10
2022-08-05T10:34:13.826Z,69.90
2022-08-05T10:36:41.689Z,69.60
2022-08-05T10:39:59.456Z,69.40
2022-08-05T10:42:33.873Z,69.60
2022-08-05T10:45:01.249Z,70.00
2022-08-05T10:47:32.916Z,70.00
2022-08-05T10:50:32.175Z,69.70
2022-08-05T10:52:58.738Z,69.70
2022-08-05T10:55:26.821Z,69.60
2022-08-05T10:58:11.432Z,69.60
2022-08-05T11:00:42.197Z,69.60
2022-08-05T11:03:24.834Z,69.40
2022-08-05T11:06:08.284Z,69.30
2022-08-05T11:08:37.234Z,69.30
2022-08-05T11:11:52.836Z,69.20
2022-08-05T11:14:56.296Z,69.20
2022-08-05T11:17:59.321Z,69.40
2022-08-05T11:20:43.835Z,69.10
2022-08-05T11:23:33.167Z,68.60
2022-08-05T11:26:10.675Z,68.70
2022-08-05T11:28:44.163Z,68.70
2022-08-05T11:31:10.926Z,68.70
2022-08-05T11:33:48.116Z,69.30
2022-08-05T11:36:34.221Z,69.70
2022-08-05T11:39:04.343Z,69.50
2022-08-05T11:41:58.175Z,69.30
2022-08-05T11:44:40.736Z,69.20
2022-08-05T11:47:10.974Z,69.30
2022-08-05T11:49:42.833Z,69.30
2022-08-05T11:52:11.342Z,69.30
2022-08-05T11:54:40.633Z,69.30
2022-08-05T11:57:25.943Z,69.40
2022-08-05T11:59:54.299Z,69.50
2022-08-05T12:02:31.950Z,69.50
2022-08-05T12:05:07.203Z,69.60
2022-08-05T12:08:09.013Z,69.70
2022-08-05T12:10:38.621Z,69.80
2022-08-05T12:13:16.328Z,70.00
2022-08-05T12:15:49.702Z,70.10
2022-08-05T12:18:32.645Z,70.10
2022-08-05T12:21:10.822Z,70.10
2022-08-05T12:23:43.130Z,70.10
2022-08-05T12:26:10.217Z,70.10
2022-08-05T12:28:37.877Z,70.40
2022-08-05T12:31:05.649Z,70.50
2022-08-05T12:33:36.334Z,70.50
2022-08-05T12:36:08.079Z,70.60
2022-08-05T12:38:37.728Z,70.60
2022-08-05T12:41:13.107Z,70.50
2022-08-05T12:43:56.363Z,70.50
2022-08-05T12:46:28.963Z,70.50
2022-08-05T12:49:13.256Z,70.50
2022-08-05T12:52:13.788Z,70.50
2022-08-05T12:54:37.161Z,70.70
2022-08-05T12:57:17.998Z,70.80
2022-08-05T13:01:58.334Z,70.70
2022-08-05T13:02:35.844Z,70.60
2022-08-05T13:05:06.188Z,70.60
2022-08-05T13:08:00.229Z,70.70
2022-08-05T13:10:20.493Z,70.60
2022-08-05T13:12:57.141Z,70.70
2022-08-05T13:15:42.131Z,70.80
2022-08-05T13:18:18.754Z,70.80
2022-08-05T13:20:47.460Z,71.00
2022-08-05T13:23:18.323Z,70.90
2022-08-05T13:25:52.172Z,70.80
2022-08-05T13:28:26.706Z,70.80
2022-08-05T13:30:53.727Z,70.60
2022-08-05T13:34:24.102Z,70.70
2022-08-05T13:36:09.250Z,70.70
2022-08-05T13:38:42.179Z,70.70
2022-08-05T13:41:11.441Z,70.80
2022-08-05T13:43:45.581Z,70.90
2022-08-05T13:46:38.058Z,70.90
2022-08-05T13:49:12.883Z,70.80
2022-08-05T13:51:41.482Z,70.70
2022-08-05T13:54:12.406Z,70.60
2022-08-05T13:56:45.093Z,70.60
2022-08-05T13:59:24.467Z,70.90
2022-08-05T14:01:58.285Z,71.60
2022-08-05T14:04:49.844Z,70.80
2022-08-05T14:07:55.718Z,70.80
2022-08-05T14:10:13.626Z,70.90
2022-08-05T14:12:48.778Z,71.00
2022-08-05T14:16:07.314Z,71.00
2022-08-05T14:18:04.086Z,71.20
2022-08-05T14:20:32.007Z,71.40
2022-08-05T14:22:59.787Z,72.10
2022-08-05T14:25:28.181Z,73.00
2022-08-05T14:27:56.740Z,72.70
2022-08-05T14:30:27.869Z,72.70
2022-08-05T14:32:56.694Z,73.30
2022-08-05T14:35:36.988Z,73.50
2022-08-05T14:38:04.645Z,73.40
2022-08-05T14:40:31.747Z,73.30
2022-08-05T14:43:01.089Z,73.90
2022-08-05T14:45:28.309Z,74.70
2022-08-05T14:48:05.275Z,76.60
2022-08-05T14:50:39.754Z,75.90
2022-08-05T14:53:07.647Z,75.50
2022-08-05T14:55:39.606Z,75.30
2022-08-05T14:58:10.888Z,75.40
2022-08-05T15:00:38.396Z,75.40
2022-08-05T15:03:09.510Z,75.00
2022-08-05T15:06:12.753Z,74.90
2022-08-05T15:08:58.035Z,74.90
2022-08-05T15:11:10.426Z,75.10
2022-08-05T15:13:46.593Z,75.40
2022-08-05T15:16:17.183Z,75.10
2022-08-05T15:18:43.982Z,74.30
2022-08-05T15:21:14.075Z,73.20
2022-08-05T15:23:40.841Z,72.30
2022-08-05T15:26:07.633Z,71.60
2022-08-05T15:28:35.605Z,70.90
2022-08-05T15:31:10.067Z,70.40
2022-08-05T15:34:05.630Z,70.30
2022-08-05T15:36:25.857Z,70.30
2022-08-05T15:40:41.585Z,69.80
2022-08-05T15:41:55.985Z,69.70
2022-08-05T15:44:27.835Z,70.00
2022-08-05T15:46:55.915Z,69.50
2022-08-05T15:49:40.921Z,66.60
2022-08-05T15:52:16.144Z,65.10
2022-08-05T15:54:44.094Z,66.30
2022-08-05T15:57:11.258Z,64.90
2022-08-05T15:59:39.458Z,65.90
2022-08-05T16:02:09.794Z,64.60
2022-08-05T16:04:42.669Z,62.60
2022-08-05T16:07:10.706Z,63.00
2022-08-05T16:09:37.799Z,62.40
2022-08-05T16:12:08.936Z,64.40
2022-08-05T16:14:36.095Z,64.20
2022-08-05T16:17:03.666Z,65.00
2022-08-05T16:20:03.023Z,65.60
2022-08-05T16:22:17.900Z,65.90
2022-08-05T16:24:52.177Z,66.30
2022-08-05T16:27:19.178Z,67.40
2022-08-05T16:29:59.143Z,66.80
2022-08-05T16:32:29.194Z,66.90
2022-08-05T16:34:57.675Z,67.10
2022-08-05T16:38:16.429Z,67.20
2022-08-05T16:40:20.187Z,67.40
2022-08-05T16:42:53.657Z,67.70
2022-08-05T16:46:05.334Z,67.80
2022-08-05T16:48:07.228Z,68.00
2022-08-05T16:50:37.817Z,68.10
2022-08-05T16:53:12.568Z,68.30
2022-08-05T16:55:50.224Z,68.40
2022-08-05T16:58:19.729Z,68.60
2022-08-05T17:00:48.118Z,69.50
2022-08-05T17:03:20.057Z,68.70
2022-08-05T17:05:53.651Z,68.80
2022-08-05T17:08:36.147Z,68.80
2022-08-05T17:11:12.791Z,68.80
2022-08-05T17:13:44.578Z,69.00
2022-08-05T17:16:32.932Z,69.20
2022-08-05T17:18:58.799Z,69.20
2022-08-05T17:21:26.288Z,69.30
2022-08-05T17:24:18.385Z,69.40
2022-08-05T17:26:52.364Z,69.40
2022-08-05T17:29:22.490Z,69.60
2022-08-05T17:31:59.527Z,69.50
2022-08-05T17:34:30.166Z,69.60
2022-08-05T17:37:00.311Z,69.80
2022-08-05T17:39:33.441Z,69.80
2022-08-05T17:42:18.473Z,69.90
2022-08-05T17:44:50.500Z,70.00
2022-08-05T17:47:22.893Z,70.00
2022-08-05T17:50:00.270Z,70.10
2022-08-05T17:52:34.707Z,69.30
2022-08-05T17:55:21.124Z,63.00
2022-08-05T17:57:50.059Z,62.10
2022-08-05T18:00:17.506Z,60.40
2022-08-05T18:02:47.231Z,60.70
2022-08-05T18:05:16.939Z,60.30
2022-08-05T18:07:44.697Z,60.60
2022-08-05T18:10:20.336Z,60.10
2022-08-05T18:12:48.817Z,59.60
2022-08-05T18:15:15.788Z,59.70
2022-08-05T18:18:00.988Z,57.80
2022-08-05T18:20:31.746Z,58.30
2022-08-05T18:23:00.770Z,58.10
2022-08-05T18:25:35.836Z,57.90
2022-08-05T18:28:05.137Z,56.90
2022-08-05T18:30:33.548Z,56.60
2022-08-05T18:33:01.036Z,58.10
2022-08-05T18:36:00.043Z,57.30
2022-08-05T18:38:19.300Z,57.60
2022-08-05T18:41:57.518Z,57.40
2022-08-05T18:43:42.964Z,57.50
2022-08-05T18:46:20.315Z,57.30
2022-08-05T18:48:51.988Z,57.70
2022-08-05T18:52:05.024Z,57.20
2022-08-05T18:54:31.471Z,57.30
2022-08-05T18:56:59.926Z,57.70
2022-08-05T18:59:43.808Z,57.20
2022-08-05T19:02:27.446Z,57.70
2022-08-05T19:05:02.193Z,58.30
2022-08-05T19:07:45.871Z,57.30
2022-08-05T19:10:13.846Z,57.30
2022-08-05T19:12:40.678Z,57.00
2022-08-05T19:15:25.057Z,57.00
2022-08-05T19:18:10.065Z,57.20
2022-08-05T19:20:41.600Z,57.60
2022-08-05T19:24:03.878Z,57.50
2022-08-05T19:26:03.918Z,57.60
2022-08-05T19:28:31.200Z,57.60
2022-08-05T19:31:00.857Z,57.60
2022-08-05T19:33:35.733Z,57.40
2022-08-05T19:36:07.063Z,57.40
2022-08-05T19:38:35.864Z,57.40
2022-08-05T19:41:07.142Z,57.50
2022-08-05T19:44:05.506Z,56.90
2022-08-05T19:46:30.144Z,56.90
2022-08-05T19:49:03.319Z,57.10
2022-08-05T19:52:09.261Z,57.40
2022-08-05T19:54:27.107Z,57.50
2022-08-05T19:57:06.839Z,58.20
2022-08-05T19:59:54.764Z,58.20
2022-08-05T20:02:23.099Z,57.80
2022-08-05T20:04:50.060Z,57.60
2022-08-05T20:07:47.122Z,58.10
2022-08-05T20:10:13.463Z,58.00
2022-08-05T20:12:47.597Z,57.40
2022-08-05T20:15:48.691Z,57.40
2022-08-05T20:18:10.430Z,58.00
2022-08-05T20:20:51.393Z,57.90
2022-08-05T20:23:22.270Z,58.20
2022-08-05T20:25:49.227Z,58.00
2022-08-05T20:28:19.234Z,58.30
2022-08-05T20:30:46.135Z,58.30
2022-08-05T20:33:14.915Z,58.40
2022-08-05T20:35:45.591Z,58.40
2022-08-05T20:38:20.273Z,58.60
2022-08-05T20:40:55.509Z,58.70
2022-08-05T20:43:33.350Z,58.90
2022-08-05T20:46:18.231Z,58.90
2022-08-05T20:48:45.544Z,59.60
2022-08-05T20:51:22.787Z,59.80
2022-08-05T20:53:55.113Z,59.50
2022-08-05T20:56:29.867Z,59.40
2022-08-05T20:59:11.372Z,59.60
2022-08-05T21:01:45.754Z,59.70
2022-08-05T21:04:12.657Z,59.90
2022-08-05T21:06:45.775Z,60.00
2022-08-05T21:09:14.331Z,60.10
2022-08-05T21:12:10.491Z,60.30
2022-08-05T21:14:34.583Z,60.50
2022-08-05T21:17:03.115Z,60.60
2022-08-05T21:19:47.159Z,60.60
2022-08-05T21:22:18.370Z,60.80
2022-08-05T21:24:48.861Z,60.90
2022-08-05T21:27:18.748Z,61.00
2022-08-05T21:29:48.487Z,61.20
2022-08-05T21:32:19.850Z,61.30
2022-08-05T21:34:55.796Z,61.70
2022-08-05T21:37:33.540Z,61.70
2022-08-05T21:40:06.447Z,61.80
2022-08-05T21:42:44.325Z,61.90
2022-08-05T21:45:13.611Z,62.00
2022-08-05T21:47:56.846Z,62.10
2022-08-05T21:50:25.800Z,62.40
2022-08-05T21:52:52.867Z,62.60
2022-08-05T21:55:42.683Z,62.50
2022-08-05T21:58:06.851Z,62.60
2022-08-05T22:00:37.289Z,62.60
2022-08-05T22:03:04.081Z,62.70
2022-08-05T22:05:48.124Z,62.60
2022-08-05T22:08:22.186Z,62.80
2022-08-05T22:10:50.925Z,62.80
2022-08-05T22:14:06.192Z,63.10
2022-08-05T22:16:15.765Z,63.30
2022-08-05T22:18:52.508Z,63.40
2022-08-05T22:21:20.083Z,63.30
2022-08-05T22:24:09.037Z,63.30
2022-08-05T22:27:14.060Z,63.30
2022-08-05T22:29:44.152Z,63.40
2022-08-05T22:32:12.763Z,63.60
2022-08-05T22:34:44.407Z,63.80
2022-08-05T22:37:12.650Z,63.80
2022-08-05T22:39:39.692Z,64.00
2022-08-05T22:42:11.044Z,63.90
2022-08-05T22:44:40.140Z,63.80
2022-08-05T22:47:07.093Z,63.60
2022-08-05T22:50:20.285Z,63.70
2022-08-05T22:52:32.475Z,63.80
2022-08-05T22:55:01.538Z,64.00
2022-08-05T22:57:36.366Z,64.30
2022-08-05T23:00:06.174Z,64.40
2022-08-05T23:02:35.283Z,64.30
2022-08-05T23:05:13.597Z,64.30
2022-08-05T23:07:48.586Z,64.30
2022-08-05T23:10:19.976Z,64.20
2022-08-05T23:12:51.464Z,64.30
2022-08-05T23:15:22.531Z,64.50
2022-08-05T23:18:00.996Z,64.60
2022-08-05T23:20:29.891Z,64.70
2022-08-05T23:22:58.678Z,64.80
2022-08-05T23:25:53.470Z,64.80
2022-08-05T23:28:12.996Z,64.80
2022-08-05T23:30:44.045Z,64.80
2022-08-05T23:33:25.592Z,64.80
2022-08-05T23:35:56.188Z,64.80
2022-08-05T23:38:24.247Z,64.90
2022-08-05T23:40:52.876Z,65.00
2022-08-05T23:43:25.779Z,65.20
2022-08-05T23:46:20.579Z,65.20
2022-08-05T23:48:59.731Z,65.10
2022-08-05T23:51:53.363Z,65.20
2022-08-05T23:54:26.611Z,65.20
2022-08-05T23:57:03.675Z,65.30
